Time;durP1;ratioP1;P1;durP2;ratioP2;P2;SDS_P1;SDS_P2;PMS_P1;PMS_P2;Temp;Humidity;BMP_temperature;BMP_pressure;BME280_temperature;BME280_humidity;BME280_pressure;Samples;Min_cycle;Max_cycle;Signal;HPM_P1;HPM_P2
2023/08/14 00:03:35;;;;;;;3.03;1.80;;;;;;;16.43;100.00;100637.72;8298851;28;20470;-63
2023/08/14 00:07:35;;;;;;;6.15;2.30;;;;;;;16.45;100.00;100636.56;8291534;28;20494;-63
2023/08/14 00:11:36;;;;;;;4.68;2.08;;;;;;;16.18;100.00;100644.25;8300359;28;20045;-63
2023/08/14 00:15:36;;;;;;;4.55;2.13;;;;;;;16.01;100.00;100637.97;8293058;28;20050;-63
2023/08/14 00:19:36;;;;;;;4.93;2.20;;;;;;;15.93;100.00;100634.41;8298569;28;20050;-63
2023/08/14 00:23:37;;;;;;;9.45;2.53;;;;;;;15.93;100.00;100627.09;8299729;28;20072;-63
2023/08/14 00:27:38;;;;;;;7.07;1.95;;;;;;;16.11;100.00;100635.09;8299997;28;20518;-63
2023/08/14 00:31:38;;;;;;;5.57;2.30;;;;;;;16.19;100.00;100635.06;8300054;28;20533;-63
2023/08/14 00:35:39;;;;;;;3.97;2.05;;;;;;;16.08;100.00;100627.25;8298830;28;20053;-63
2023/08/14 00:39:39;;;;;;;5.82;1.83;;;;;;;15.93;100.00;100629.81;8298977;28;20100;-63
2023/08/14 00:43:40;;;;;;;6.68;2.40;;;;;;;15.85;100.00;100626.28;8303562;28;20041;-63
2023/08/14 00:47:43;;;;;;;7.25;2.13;;;;;;;15.88;100.00;100642.25;8300316;28;20404;-62
2023/08/14 00:51:44;;;;;;;6.10;2.37;;;;;;;15.88;100.00;100626.75;8298610;28;20041;-63
2023/08/14 00:55:45;;;;;;;7.75;2.42;;;;;;;15.68;100.00;100620.81;8301162;28;20065;-65
2023/08/14 00:59:46;;;;;;;7.72;2.50;;;;;;;15.77;100.00;100623.53;8298070;28;20515;-62
2023/08/14 01:03:47;;;;;;;5.95;2.05;;;;;;;15.71;100.00;100625.91;8301668;28;20132;-63
2023/08/14 01:07:47;;;;;;;5.32;2.30;;;;;;;15.73;100.00;100616.72;8304471;28;20034;-63
2023/08/14 01:12:06;;;;;;;4.03;1.83;;;;;;;15.68;100.00;100620.81;8308478;28;20045;-63
2023/08/14 01:16:13;;;;;;;4.25;2.22;;;;;;;15.56;100.00;100610.44;8304365;28;20038;-63
2023/08/14 01:20:17;;;;;;;6.82;2.45;;;;;;;15.46;100.00;100591.50;8303106;28;20051;-62
2023/08/14 01:24:58;;;;;;;5.95;2.10;;;;;;;15.53;100.00;100600.69;8312527;28;20044;-62
2023/08/14 01:28:59;;;;;;;4.88;2.15;;;;;;;15.71;100.00;100592.38;8310304;28;20254;-63
2023/08/14 01:33:00;;;;;;;3.95;2.22;;;;;;;15.60;100.00;100582.66;8312582;28;20041;-63
2023/08/14 01:37:12;;;;;;;4.57;1.85;;;;;;;15.38;100.00;100580.63;8315244;28;20072;-63
2023/08/14 01:41:19;;;;;;;6.32;2.28;;;;;;;15.31;100.00;100573.28;8308406;28;20442;-62
2023/08/14 01:45:23;;;;;;;5.00;2.05;;;;;;;15.27;100.00;100572.75;8313203;28;20096;-63
2023/08/14 01:49:27;;;;;;;5.88;2.00;;;;;;;15.26;100.00;100562.00;8313121;28;20463;-63
2023/08/14 01:53:28;;;;;;;9.05;2.08;;;;;;;15.12;100.00;100555.38;8308942;28;20495;-63
2023/08/14 01:57:29;;;;;;;4.43;1.75;;;;;;;15.14;100.00;100553.34;8311768;28;20056;-62
2023/08/14 02:01:30;;;;;;;7.32;2.10;;;;;;;15.16;100.00;100558.63;8311276;28;20550;-63
2023/08/14 02:05:32;;;;;;;6.03;2.80;;;;;;;15.30;100.00;100550.63;8310714;28;20043;-63
2023/08/14 02:09:35;;;;;;;7.50;2.22;;;;;;;15.23;100.00;100552.31;8311064;28;20030;-62
2023/08/14 02:13:35;;;;;;;7.75;2.25;;;;;;;15.19;100.00;100547.38;8312822;28;20113;-63
2023/08/14 02:17:36;;;;;;;3.85;2.10;;;;;;;15.19;100.00;100545.50;8312562;28;20041;-59
2023/08/14 02:21:36;;;;;;;5.88;1.95;;;;;;;15.15;100.00;100529.66;8307794;28;20046;-59
2023/08/14 02:25:41;;;;;;;6.20;2.30;;;;;;;15.09;100.00;100536.63;8333054;28;20061;-60
2023/08/14 02:29:41;;;;;;;6.00;2.53;;;;;;;15.08;100.00;100554.00;8310409;28;20049;-59
2023/08/14 02:33:42;;;;;;;3.03;1.95;;;;;;;15.03;100.00;100550.06;8310312;28;20037;-59
2023/08/14 02:37:43;;;;;;;7.90;2.53;;;;;;;15.00;100.00;100543.09;8310431;28;20511;-59
2023/08/14 02:41:43;;;;;;;8.68;2.30;;;;;;;14.91;100.00;100544.09;8312293;28;20485;-59
2023/08/14 02:45:44;;;;;;;4.22;2.17;;;;;;;14.93;100.00;100542.06;8305782;28;20050;-59
2023/08/14 02:49:45;;;;;;;5.38;2.65;;;;;;;15.07;100.00;100535.13;8308729;28;20426;-60
2023/08/14 02:53:46;;;;;;;5.38;2.33;;;;;;;14.90;100.00;100539.69;8309840;28;20557;-59
2023/08/14 02:57:46;;;;;;;5.22;2.22;;;;;;;14.82;100.00;100528.78;8310573;28;20491;-59
2023/08/14 03:01:47;;;;;;;9.10;2.95;;;;;;;14.79;100.00;100531.81;8308418;28;20504;-59
2023/08/14 03:05:47;;;;;;;6.97;2.13;;;;;;;14.83;100.00;100525.06;8309593;28;20443;-58
2023/08/14 03:09:48;;;;;;;3.00;2.20;;;;;;;14.71;100.00;100530.97;8309901;28;20065;-60
2023/08/14 03:13:48;;;;;;;5.85;2.40;;;;;;;14.56;100.00;100527.19;8311103;28;20092;-59
2023/08/14 03:17:49;;;;;;;10.00;2.58;;;;;;;14.52;100.00;100529.38;8310221;28;20052;-59
2023/08/14 03:21:52;;;;;;;7.38;2.42;;;;;;;14.43;100.00;100538.56;8306839;28;20050;-59
2023/08/14 03:25:52;;;;;;;6.88;2.40;;;;;;;14.36;100.00;100529.31;8309283;28;20045;-62
2023/08/14 03:29:53;;;;;;;7.22;2.65;;;;;;;14.37;100.00;100527.47;8303447;28;20042;-62
2023/08/14 03:33:54;;;;;;;6.25;2.45;;;;;;;14.55;100.00;100537.19;8308646;28;20038;-62
2023/08/14 03:37:54;;;;;;;6.43;2.92;;;;;;;14.68;100.00;100532.16;8309421;28;20399;-62
2023/08/14 03:41:56;;;;;;;6.40;2.92;;;;;;;14.55;100.00;100531.75;8310095;28;20116;-63
2023/08/14 03:45:57;;;;;;;6.55;2.30;;;;;;;14.30;100.00;100527.25;8307592;28;20120;-62
2023/08/14 03:49:57;;;;;;;6.15;2.30;;;;;;;14.31;100.00;100523.53;8307615;28;20041;-62
2023/08/14 03:53:57;;;;;;;4.13;2.63;;;;;;;14.34;100.00;100528.66;8307525;28;20038;-62
2023/08/14 03:57:58;;;;;;;5.53;2.38;;;;;;;14.38;100.00;100513.69;8308362;28;20037;-62
2023/08/14 04:01:59;;;;;;;6.30;2.53;;;;;;;14.37;100.00;100514.72;8306138;28;20049;-63
2023/08/14 04:06:00;;;;;;;11.68;3.10;;;;;;;14.32;100.00;100514.38;8308121;28;20034;-62
2023/08/14 04:10:01;;;;;;;8.13;2.50;;;;;;;14.33;100.00;100521.50;8308743;28;20045;-63
2023/08/14 04:14:02;;;;;;;3.58;1.90;;;;;;;14.31;100.00;100517.25;8309028;28;20491;-63
2023/08/14 04:18:03;;;;;;;8.32;2.92;;;;;;;14.26;100.00;100509.56;8307454;28;20083;-63
2023/08/14 04:22:03;;;;;;;10.07;2.60;;;;;;;14.13;100.00;100525.47;8303926;28;20457;-62
2023/08/14 04:26:04;;;;;;;7.00;3.05;;;;;;;14.11;100.00;100522.06;8308150;28;20482;-63
2023/08/14 04:30:05;;;;;;;11.68;4.28;;;;;;;14.19;100.00;100513.94;8306595;28;20479;-62
2023/08/14 04:34:09;;;;;;;10.60;4.45;;;;;;;14.17;100.00;100513.25;8303397;28;20038;-62
2023/08/14 04:38:11;;;;;;;6.97;4.22;;;;;;;14.31;100.00;100512.66;8305184;28;20503;-63
2023/08/14 04:42:14;;;;;;;10.10;4.78;;;;;;;14.55;100.00;100507.28;8305220;28;20057;-62
2023/08/14 04:46:29;;;;;;;11.63;4.32;;;;;;;14.61;100.00;100514.78;8306013;28;20042;-62
2023/08/14 04:50:32;;;;;;;6.05;3.28;;;;;;;14.66;100.00;100506.97;8299471;28;20068;-62
2023/08/14 04:54:34;;;;;;;5.85;2.75;;;;;;;14.64;100.00;100509.00;8301031;28;20033;-61
2023/08/14 04:58:35;;;;;;;10.15;2.40;;;;;;;14.83;100.00;100502.41;8300720;28;20395;-61
2023/08/14 05:02:36;;;;;;;9.60;2.25;;;;;;;15.03;100.00;100501.91;8302467;28;20053;-61
2023/08/14 05:06:37;;;;;;;6.30;2.50;;;;;;;15.10;100.00;100497.47;8302498;28;20064;-61
2023/08/14 05:10:38;;;;;;;6.47;2.50;;;;;;;15.20;100.00;100500.91;8301028;28;20058;-61
2023/08/14 05:14:38;;;;;;;5.20;2.35;;;;;;;15.24;100.00;100499.53;8303075;28;20333;-61
2023/08/14 05:18:38;;;;;;;9.07;2.50;;;;;;;15.33;100.00;100479.44;8297361;28;20045;-61
2023/08/14 05:22:39;;;;;;;4.78;2.40;;;;;;;15.36;100.00;100490.00;8297877;28;20132;-61
2023/08/14 05:26:40;;;;;;;6.43;2.20;;;;;;;15.50;100.00;100500.22;8276389;28;20484;-61
2023/08/14 05:30:43;;;;;;;4.78;2.33;;;;;;;15.70;100.00;100498.81;8272934;28;20034;-61
2023/08/14 05:34:43;;;;;;;5.38;2.17;;;;;;;15.79;100.00;100496.09;8297037;28;20136;-61
2023/08/14 05:38:45;;;;;;;6.43;2.03;;;;;;;16.01;100.00;100496.16;8301844;28;20041;-61
2023/08/14 05:43:00;;;;;;;6.70;2.42;;;;;;;16.36;100.00;100500.28;8298838;28;20049;-61
2023/08/14 05:47:01;;;;;;;7.50;2.38;;;;;;;16.96;100.00;100498.59;8289219;28;20037;-61
2023/08/14 05:51:02;;;;;;;5.15;2.30;;;;;;;17.21;100.00;100500.09;8295447;28;20042;-61
2023/08/14 05:55:02;;;;;;;7.05;2.40;;;;;;;17.29;100.00;100500.00;8302383;28;20115;-61
2023/08/14 05:59:03;;;;;;;7.20;2.15;;;;;;;17.15;100.00;100503.56;8305921;28;20061;-61
2023/08/14 06:03:04;;;;;;;3.58;1.35;;;;;;;17.00;100.00;100497.19;8297823;28;20201;-60
2023/08/14 06:07:05;;;;;;;4.35;2.22;;;;;;;16.89;100.00;100503.06;8306112;28;20034;-61
2023/08/14 06:11:05;;;;;;;5.88;2.03;;;;;;;16.91;100.00;100485.50;8312285;28;20491;-61
2023/08/14 06:15:06;;;;;;;3.50;2.00;;;;;;;17.02;100.00;100498.69;8311091;28;20128;-61
2023/08/14 06:19:07;;;;;;;5.15;2.00;;;;;;;16.96;100.00;100498.59;8300009;28;20396;-61
2023/08/14 06:23:07;;;;;;;8.20;2.10;;;;;;;16.99;100.00;100503.69;8306441;28;20038;-61
2023/08/14 06:27:08;;;;;;;4.07;1.70;;;;;;;17.13;100.00;100500.16;8325762;28;20037;-61
2023/08/14 06:31:09;;;;;;;6.05;2.20;;;;;;;17.34;100.00;100486.66;8306831;28;20495;-61
2023/08/14 06:35:09;;;;;;;8.10;2.35;;;;;;;17.90;100.00;100483.38;8312229;28;20072;-61
2023/08/14 06:39:09;;;;;;;6.07;2.10;;;;;;;18.47;100.00;100492.59;8310709;28;20045;-61
2023/08/14 06:43:10;;;;;;;3.72;1.40;;;;;;;18.43;100.00;100501.38;8310186;28;20045;-61
2023/08/14 06:47:12;;;;;;;9.60;1.98;;;;;;;18.62;100.00;100507.13;8310027;28;20305;-60
2023/08/14 06:51:12;;;;;;;2.38;1.45;;;;;;;18.61;100.00;100510.91;8306395;28;20045;-61
2023/08/14 06:55:13;;;;;;;7.70;1.48;;;;;;;18.81;100.00;100517.44;8308732;28;20144;-61
2023/08/14 06:59:13;;;;;;;6.78;1.85;;;;;;;19.08;100.00;100505.72;8310068;28;20091;-62
2023/08/14 07:03:14;;;;;;;6.53;1.60;;;;;;;19.61;100.00;100484.31;8308459;28;20049;-62
2023/08/14 07:07:14;;;;;;;5.05;1.42;;;;;;;19.83;99.20;100485.94;8310576;28;20459;-61
2023/08/14 07:11:15;;;;;;;6.32;2.10;;;;;;;19.82;100.00;100489.72;8309499;28;20037;-62
2023/08/14 07:15:15;;;;;;;5.63;2.03;;;;;;;19.91;100.00;100477.56;8309447;28;20117;-62
2023/08/14 07:19:17;;;;;;;4.78;1.23;;;;;;;19.87;97.98;100481.72;8310075;28;20052;-62
2023/08/14 07:23:20;;;;;;;5.53;1.50;;;;;;;20.07;97.97;100477.22;8308863;28;20033;-62
2023/08/14 07:27:20;;;;;;;7.75;1.70;;;;;;;20.30;96.81;100475.88;8309266;28;20117;-62
2023/08/14 07:31:21;;;;;;;6.28;1.70;;;;;;;20.28;95.16;100480.72;8306283;28;20037;-62
2023/08/14 07:35:21;;;;;;;10.85;2.15;;;;;;;20.76;96.71;100481.53;8307150;28;20044;-62
2023/08/14 07:39:22;;;;;;;3.60;1.10;;;;;;;20.80;93.57;100480.09;8307302;28;20042;-62
2023/08/14 07:43:23;;;;;;;6.05;1.83;;;;;;;20.80;93.47;100466.34;8308683;28;20053;-62
2023/08/14 07:47:23;;;;;;;7.10;1.75;;;;;;;20.50;96.24;100462.25;8308611;28;20045;-62
2023/08/14 07:51:24;;;;;;;5.75;1.20;;;;;;;20.75;99.27;100472.47;8307252;28;20081;-62
2023/08/14 07:55:24;;;;;;;6.18;1.60;;;;;;;21.15;94.76;100476.16;8308141;28;20037;-62
2023/08/14 07:59:25;;;;;;;7.50;1.98;;;;;;;21.97;90.14;100485.69;8309185;28;20396;-62
2023/08/14 08:03:25;;;;;;;4.43;1.20;;;;;;;22.21;87.88;100485.00;8303760;28;20407;-62
2023/08/14 08:07:25;;;;;;;5.60;1.08;;;;;;;22.29;87.78;100487.50;8308060;28;20494;-59
2023/08/14 08:11:26;;;;;;;4.45;0.95;;;;;;;22.57;83.02;100468.78;8307855;28;20106;-59
2023/08/14 08:15:26;;;;;;;5.32;1.33;;;;;;;22.61;80.65;100478.31;8305955;28;20042;-59
2023/08/14 08:19:27;;;;;;;3.95;1.50;;;;;;;22.92;82.52;100489.38;8308533;28;20042;-58
2023/08/14 08:23:28;;;;;;;4.05;1.00;;;;;;;23.14;80.53;100492.63;8306181;28;20559;-58
2023/08/14 08:27:29;;;;;;;4.47;1.20;;;;;;;23.46;76.09;100487.97;8307658;28;20087;-62
2023/08/14 08:31:29;;;;;;;4.60;0.98;;;;;;;23.51;75.66;100490.91;8305381;28;20062;-62
2023/08/14 08:35:30;;;;;;;4.03;1.15;;;;;;;23.82;72.32;100494.44;8308242;28;20614;-62
2023/08/14 08:39:31;;;;;;;5.45;1.40;;;;;;;24.17;71.99;100489.22;8304528;28;20050;-62
2023/08/14 08:43:32;;;;;;;8.52;1.92;;;;;;;24.10;72.59;100493.97;8308583;28;20034;-62
2023/08/14 08:47:37;;;;;;;6.78;1.70;;;;;;;24.18;70.71;100499.22;8305493;28;20068;-62
2023/08/14 08:51:39;;;;;;;5.72;1.60;;;;;;;24.42;71.63;100507.44;8290630;28;20064;-62
2023/08/14 08:55:40;;;;;;;4.35;1.83;;;;;;;24.29;69.49;100506.72;8307850;28;20079;-62
2023/08/14 08:59:40;;;;;;;4.70;1.00;;;;;;;24.54;68.73;100510.25;8306191;28;20049;-62
2023/08/14 09:03:41;;;;;;;3.80;0.95;;;;;;;24.74;67.82;100505.38;8306304;28;20052;-62
2023/08/14 09:07:42;;;;;;;3.90;1.17;;;;;;;24.63;67.20;100497.81;8306133;28;20139;-62
2023/08/14 09:11:42;;;;;;;8.50;1.00;;;;;;;25.12;67.31;100486.50;8306052;28;20038;-62
2023/08/14 09:15:44;;;;;;;5.43;1.33;;;;;;;25.34;66.58;100493.22;8307333;28;20038;-62
2023/08/14 09:19:45;;;;;;;6.18;1.08;;;;;;;25.23;65.68;100488.50;8307199;28;20048;-61
2023/08/14 09:23:46;;;;;;;4.53;1.02;;;;;;;25.83;63.38;100483.69;8303338;28;20046;-61
2023/08/14 09:27:47;;;;;;;4.68;1.20;;;;;;;25.63;64.30;100467.41;8306301;28;20037;-62
2023/08/14 09:31:47;;;;;;;2.35;1.02;;;;;;;25.36;65.44;100470.84;8305628;28;20087;-61
2023/08/14 09:54:32;;;;;;;5.10;1.33;;;;;;;26.28;59.87;100466.19;8335707;27;21070;-62
2023/08/14 09:58:33;;;;;;;3.88;0.93;;;;;;;26.00;62.50;100452.25;8335726;28;20056;-62
2023/08/14 10:02:37;;;;;;;5.07;1.00;;;;;;;25.57;63.91;100457.28;8333285;28;20029;-61
2023/08/14 10:06:37;;;;;;;3.60;1.17;;;;;;;25.46;64.81;100444.25;8335138;28;20114;-62
2023/08/14 10:10:39;;;;;;;2.15;0.80;;;;;;;27.17;59.84;100454.44;8334435;28;20120;-61
2023/08/14 10:14:45;;;;;;;5.32;1.40;;;;;;;28.53;57.24;100438.00;8334616;28;20050;-62
2023/08/14 10:18:48;;;;;;;3.45;1.17;;;;;;;27.86;58.93;100445.66;8330714;28;20052;-62
2023/08/14 10:22:52;;;;;;;4.82;1.30;;;;;;;27.62;59.60;100446.06;8331619;28;20041;-62
2023/08/14 10:31:39;;;;;;;7.07;1.40;;;;;;;26.96;61.01;100451.53;8350925;27;20399;-59
2023/08/14 10:35:47;;;;;;;4.00;1.35;;;;;;;27.17;60.65;100448.06;8352231;28;20503;-58
2023/08/14 10:39:48;;;;;;;4.80;1.40;;;;;;;27.38;60.31;100439.03;8340223;28;20069;-59
2023/08/14 10:43:50;;;;;;;5.22;1.40;;;;;;;27.69;60.80;100446.75;8349081;28;20037;-60
2023/08/14 10:47:52;;;;;;;4.25;1.08;;;;;;;27.36;61.25;100443.97;8349543;28;20049;-59
2023/08/14 10:52:01;;;;;;;5.28;1.27;;;;;;;26.90;63.57;100449.75;8349369;28;20076;-59
2023/08/14 10:56:04;;;;;;;2.03;1.05;;;;;;;26.39;64.52;100440.38;8346781;28;20102;-58
2023/08/14 11:00:20;;;;;;;7.32;1.50;;;;;;;26.28;65.37;100449.56;8351311;28;20038;-58
2023/08/14 11:30:51;;;;;;;7.45;1.73;;;;;;;26.31;67.91;100437.97;8336106;27;20969;-59
2023/08/14 11:34:52;;;;;;;4.78;1.85;;;;;;;26.14;72.23;100425.13;8336515;28;20415;-59
2023/08/14 11:38:53;;;;;;;5.00;1.80;;;;;;;26.08;73.03;100421.41;8333663;28;20624;-59
2023/08/14 11:42:55;;;;;;;4.40;1.48;;;;;;;26.11;73.41;100415.38;8333058;28;20053;-59
2023/08/14 11:46:56;;;;;;;6.82;1.85;;;;;;;26.07;72.81;100403.09;8338546;28;20041;-58
2023/08/14 11:50:58;;;;;;;4.03;1.67;;;;;;;25.82;75.64;100404.41;8332491;28;20037;-59
2023/08/14 11:55:00;;;;;;;3.08;1.35;;;;;;;26.70;74.28;100403.88;8332459;28;20037;-60
2023/08/14 18:49:48;;;;;;;5.15;2.70;;;;;;;25.53;91.47;100284.41;8332249;27;20475;-61
2023/08/14 18:53:50;;;;;;;4.20;2.30;;;;;;;25.59;91.25;100277.91;8327631;28;20499;-61
2023/08/14 18:57:50;;;;;;;4.78;2.67;;;;;;;25.57;91.40;100288.38;8327006;28;20142;-61
2023/08/14 19:01:51;;;;;;;4.28;2.70;;;;;;;25.46;91.78;100283.66;8328779;28;20060;-59
2023/08/14 19:05:57;;;;;;;3.28;2.60;;;;;;;25.37;92.16;100290.66;8327763;28;20534;-61
2023/08/14 19:09:57;;;;;;;5.00;2.72;;;;;;;25.22;93.25;100293.03;8329704;28;20045;-61
2023/08/14 19:13:58;;;;;;;6.90;2.50;;;;;;;25.15;93.88;100300.63;8331216;28;20511;-62
2023/08/14 19:17:58;;;;;;;3.95;2.65;;;;;;;25.14;94.46;100296.19;8329627;28;20041;-62
2023/08/14 19:21:59;;;;;;;3.92;2.47;;;;;;;25.22;93.36;100315.19;8326267;28;20100;-61
2023/08/14 19:25:59;;;;;;;5.53;2.65;;;;;;;25.24;93.60;100323.25;8329822;28;20506;-62
2023/08/14 19:29:59;;;;;;;4.60;2.53;;;;;;;25.20;93.61;100322.91;8326530;28;20053;-62
2023/08/14 19:34:01;;;;;;;5.40;3.15;;;;;;;25.15;94.24;100327.47;8327896;28;20045;-62
2023/08/14 19:38:02;;;;;;;3.83;2.33;;;;;;;25.02;95.24;100323.84;8319683;28;20488;-62
2023/08/14 19:42:02;;;;;;;5.93;3.05;;;;;;;25.03;95.34;100324.69;8292786;28;20662;-62
2023/08/14 19:46:03;;;;;;;3.40;2.80;;;;;;;25.03;95.71;100328.28;8292459;28;20042;-62
2023/08/14 19:50:05;;;;;;;4.60;2.80;;;;;;;25.07;95.92;100339.75;8290961;28;20053;-63
2023/08/14 19:54:05;;;;;;;3.58;2.47;;;;;;;25.01;95.96;100324.91;8322750;28;20054;-61
2023/08/14 19:58:06;;;;;;;3.97;2.97;;;;;;;24.87;97.33;100333.69;8321346;28;20487;-64
2023/08/14 20:02:06;;;;;;;7.22;2.90;;;;;;;24.91;97.15;100326.59;8295951;28;20111;-64
2023/08/14 20:06:07;;;;;;;4.60;3.20;;;;;;;24.83;97.59;100326.94;8303444;28;20604;-64
2023/08/14 20:10:08;;;;;;;4.28;2.60;;;;;;;24.88;97.73;100325.16;8302965;28;20384;-64
2023/08/14 20:14:08;;;;;;;5.72;2.70;;;;;;;24.89;98.04;100324.06;8300794;28;20414;-64
2023/08/14 20:18:11;;;;;;;6.88;3.15;;;;;;;24.94;98.14;100323.34;8302074;28;20038;-64
2023/08/14 20:22:11;;;;;;;7.15;2.88;;;;;;;24.89;98.65;100326.81;8300875;28;20522;-64
2023/08/14 20:26:12;;;;;;;5.85;2.72;;;;;;;24.88;99.30;100327.06;8304537;28;20414;-64
2023/08/14 20:30:12;;;;;;;5.10;2.97;;;;;;;24.86;99.81;100332.81;8300617;28;20076;-59
2023/08/14 20:34:13;;;;;;;8.85;2.80;;;;;;;24.81;100.00;100329.09;8304888;28;20049;-59
2023/08/14 20:38:13;;;;;;;6.88;2.75;;;;;;;24.78;100.00;100340.63;8302399;28;20503;-62
2023/08/14 20:42:14;;;;;;;5.95;3.33;;;;;;;24.75;100.00;100332.81;8303260;28;20045;-62
2023/08/14 20:46:14;;;;;;;6.82;2.95;;;;;;;24.68;100.00;100341.22;8271987;28;20042;-62
2023/08/14 20:50:15;;;;;;;4.67;2.80;;;;;;;24.61;100.00;100336.84;8268886;28;20058;-64
2023/08/14 20:54:15;;;;;;;5.40;3.22;;;;;;;24.58;100.00;100334.56;8266987;28;20290;-64
2023/08/14 20:58:16;;;;;;;3.10;2.67;;;;;;;24.53;100.00;100337.16;8269134;28;20416;-59
2023/08/14 21:02:16;;;;;;;5.10;2.47;;;;;;;24.51;100.00;100336.56;8267644;28;20133;-59
2023/08/14 21:06:17;;;;;;;4.43;2.78;;;;;;;24.50;100.00;100337.63;8299295;28;20045;-60
2023/08/14 21:10:18;;;;;;;3.30;2.67;;;;;;;24.58;100.00;100334.56;8299156;28;20052;-59
2023/08/14 21:14:19;;;;;;;6.22;3.03;;;;;;;24.57;100.00;100343.91;8303771;28;20416;-59
2023/08/14 21:18:19;;;;;;;5.75;2.50;;;;;;;24.47;100.00;100344.50;8303124;28;20046;-59
2023/08/14 21:22:20;;;;;;;3.20;2.25;;;;;;;24.42;100.00;100343.47;8303519;28;20041;-58
2023/08/14 21:26:20;;;;;;;5.85;2.45;;;;;;;24.58;100.00;100342.84;8305415;28;20130;-58
2023/08/14 21:30:20;;;;;;;4.47;2.83;;;;;;;24.53;100.00;100348.22;8304404;28;20054;-58
2023/08/14 21:34:21;;;;;;;7.22;2.88;;;;;;;24.42;100.00;100349.00;8305450;28;20041;-58
2023/08/14 21:38:21;;;;;;;4.25;2.60;;;;;;;24.38;100.00;100342.28;8304600;28;20056;-58
2023/08/14 21:42:22;;;;;;;4.50;3.17;;;;;;;24.38;100.00;100348.66;8300066;28;20415;-59
2023/08/14 21:46:24;;;;;;;8.15;3.10;;;;;;;24.35;100.00;100353.81;8296469;28;20083;-59
2023/08/14 21:50:24;;;;;;;7.05;2.90;;;;;;;24.28;100.00;100345.59;8298606;28;20064;-58
2023/08/14 21:54:24;;;;;;;7.30;3.20;;;;;;;24.20;100.00;100345.06;8297689;28;20045;-60
2023/08/14 21:58:25;;;;;;;3.53;2.88;;;;;;;24.11;100.00;100338.19;8283953;28;20057;-59
2023/08/14 22:02:25;;;;;;;3.42;2.67;;;;;;;23.96;100.00;100337.72;8295841;28;20558;-58
2023/08/14 22:06:26;;;;;;;6.57;3.47;;;;;;;23.94;100.00;100337.94;8293412;28;20518;-58
2023/08/14 22:10:26;;;;;;;6.38;3.30;;;;;;;23.95;100.00;100338.81;8294112;28;20132;-62
2023/08/14 22:14:27;;;;;;;5.78;3.50;;;;;;;23.92;100.00;100340.09;8295377;28;20119;-61
2023/08/14 22:18:27;;;;;;;7.50;2.80;;;;;;;23.83;100.00;100335.13;8292609;28;20048;-62
2023/08/14 22:22:28;;;;;;;6.60;2.97;;;;;;;23.95;100.00;100341.59;8292619;28;20508;-62
2023/08/14 22:26:28;;;;;;;5.30;2.72;;;;;;;23.91;100.00;100348.63;8275968;28;20109;-62
2023/08/14 22:30:29;;;;;;;4.25;2.70;;;;;;;23.67;100.00;100341.25;8294998;28;20042;-62
2023/08/14 22:34:29;;;;;;;4.97;2.83;;;;;;;23.57;100.00;100341.78;8295441;28;20045;-62
2023/08/14 22:38:29;;;;;;;5.75;3.00;;;;;;;23.34;100.00;100344.38;8293407;28;20658;-62
2023/08/14 22:42:30;;;;;;;4.85;2.88;;;;;;;23.38;100.00;100353.88;8294386;28;20247;-62
2023/08/14 22:46:30;;;;;;;5.15;3.42;;;;;;;23.49;100.00;100355.03;8294383;28;20034;-62
2023/08/14 22:50:31;;;;;;;5.75;3.70;;;;;;;23.65;100.00;100352.53;8297673;28;20069;-62
2023/08/14 22:54:31;;;;;;;5.70;3.03;;;;;;;23.65;100.00;100360.81;8293597;28;20132;-62
2023/08/14 22:58:32;;;;;;;8.20;3.50;;;;;;;23.72;100.00;100357.97;8297237;28;20041;-63
2023/08/14 23:02:32;;;;;;;4.57;3.35;;;;;;;23.68;100.00;100354.81;8293929;28;20116;-63
2023/08/14 23:06:33;;;;;;;5.25;2.95;;;;;;;23.72;100.00;100345.00;8291592;28;20087;-60
2023/08/14 23:10:34;;;;;;;3.08;2.40;;;;;;;23.68;100.00;100351.22;8294911;28;20042;-63
2023/08/14 23:14:34;;;;;;;6.18;3.25;;;;;;;23.52;100.00;100346.31;8292304;28;20038;-62
2023/08/14 23:18:35;;;;;;;4.07;2.95;;;;;;;23.24;100.00;100351.47;8295284;28;20047;-59
2023/08/14 23:22:36;;;;;;;4.47;3.17;;;;;;;23.18;100.00;100348.50;8293635;28;20534;-60
2023/08/14 23:26:36;;;;;;;6.28;3.25;;;;;;;23.18;100.00;100355.94;8293828;28;20553;-61
2023/08/14 23:30:38;;;;;;;4.20;3.67;;;;;;;23.07;100.00;100351.16;8294655;28;20073;-62
2023/08/14 23:34:39;;;;;;;6.05;3.35;;;;;;;23.02;100.00;100354.59;8296794;28;20327;-62
2023/08/14 23:38:40;;;;;;;7.03;3.60;;;;;;;22.91;100.00;100344.28;8301878;28;20083;-62
2023/08/14 23:42:40;;;;;;;5.30;3.83;;;;;;;22.81;100.00;100335.66;8300663;28;20037;-62
2023/08/14 23:46:41;;;;;;;5.85;3.78;;;;;;;22.77;100.00;100334.44;8299425;28;20641;-62
2023/08/14 23:50:41;;;;;;;6.13;3.63;;;;;;;22.74;100.00;100314.72;8303698;28;20050;-61
2023/08/14 23:54:42;;;;;;;6.90;4.20;;;;;;;22.70;100.00;100311.59;8297932;28;20041;-61
2023/08/14 23:58:42;;;;;;;6.03;4.03;;;;;;;22.67;100.00;100316.72;8301229;28;20061;-61
